Pitt Greenville Airport
KPGV : now visible

Airfield :











YOU CAN JOIN US ON...

 
LOGIN :

Register | Disclaimer

   EN    FR    IT 

 









Legend :    VFR   Marginal VFR   IFR   Intensive IFR   Very Intensive IFR
Visi :
Ceiling :
>= 8 km
>= 3000ft
5 to 8 km
1000 to 3000 ft
1500m to 5 km
500 to 1000 ft
800 to 1500m
200 to 500 ft
< 800m
< 200 ft
Symbols :   Thunderstorms  Fog  Heavy snow  Heavy precipitations  Wind > 20 kt







- Airport Elevation : 26 ft


KPGV - Pitt Greenville

CURRENT METAR :
  • 181605Z AUTO 20012G18KT 10SM CLR 25/13 A3009 RMK AO2

EXPIRED METARs :
  • 181545Z AUTO 21010G17KT 10SM CLR 25/14 A3010 RMK AO2
  • 181525Z AUTO 21013KT 10SM CLR 25/14 A3011 RMK AO2
  • 181505Z AUTO 22013G17KT 10SM CLR 24/13 A3010 RMK AO2
  • 181445Z AUTO 25010G16KT 10SM CLR 23/14 A3010 RMK AO2
  • 181425Z AUTO 22009G15KT 10SM CLR 22/14 A3009 RMK AO2
  • 181405Z AUTO 22007KT 10SM CLR 22/14 A3009 RMK AO2
  • 181345Z AUTO 23008KT 10SM CLR 20/14 A3010 RMK AO2
  • 181325Z AUTO 22009KT 10SM CLR 19/13 A3010 RMK AO2

TAF KPGV
Valid from the 18 at 15:00 until the 19 at 12:00 UTC


181512Z 1815/1912 20011G21KT P6SM SCT250
FM190300 18010KT P6SM BKN150
FM191000 17011KT P6SM BKN015 AMD LTD TO CLD VIS AND WIND
KZDC FIR / North America



MET'MAP, your aeronautical weather chart ! - Copyright ORBIFLY December 2007 - Disclaimer

ORBIFLY MET'MAP TEAM :

Programming & Development : Alexandra Zaïnal
Concept & Development : Baudouin d'Aumeries
Co-Development & Prog : Marc-Olivier Méhu
Technical & hardware support : Manuel Goepfert

Contact : metmap@orbifly.com




SOURCES & CREDITS :

   NOAA       Earth
Advisory